Time;durP1;ratioP1;P1;durP2;ratioP2;P2;SDS_P1;SDS_P2;PMS_P1;PMS_P2;Temp;Humidity;BMP_temperature;BMP_pressure;BME280_temperature;BME280_humidity;BME280_pressure;Samples;Min_cycle;Max_cycle;Signal;HPM_P1;HPM_P2
2023/07/07 00:00:35;;;;;;;5.65;1.85;;;15.00;99.90;;;;;;4977234;28;20054;-39
2023/07/07 00:03:01;;;;;;;3.70;2.00;;;15.00;99.90;;;;;;4968598;28;20505;-34
2023/07/07 00:05:26;;;;;;;3.53;1.70;;;15.00;99.90;;;;;;4979520;28;20102;-34
2023/07/07 00:07:52;;;;;;;5.10;1.70;;;14.90;99.90;;;;;;4979088;28;20104;-34
2023/07/07 00:10:18;;;;;;;4.43;1.90;;;14.80;99.90;;;;;;4962346;28;20101;-34
2023/07/07 00:12:45;;;;;;;3.53;1.83;;;14.80;99.90;;;;;;4963166;28;20520;-34
2023/07/07 00:15:11;;;;;;;3.63;2.10;;;14.80;99.90;;;;;;4964461;28;20509;-34
2023/07/07 00:17:36;;;;;;;4.82;2.03;;;14.70;99.90;;;;;;4963468;28;20391;-34
2023/07/07 00:20:07;;;;;;;4.50;2.25;;;14.70;99.90;;;;;;4965379;28;20142;-34
2023/07/07 00:22:34;;;;;;;5.75;2.53;;;14.70;99.90;;;;;;4971841;28;20086;-34
2023/07/07 00:25:01;;;;;;;3.90;2.00;;;14.60;99.90;;;;;;4961373;28;20046;-34
2023/07/07 00:27:27;;;;;;;3.55;1.77;;;14.60;99.90;;;;;;4960367;28;20047;-34
2023/07/07 00:29:53;;;;;;;4.53;2.10;;;14.50;99.90;;;;;;4964219;28;20058;-34
2023/07/07 00:32:18;;;;;;;4.40;1.70;;;14.50;99.90;;;;;;4968342;28;20054;-34
2023/07/07 00:34:44;;;;;;;4.10;2.20;;;14.50;99.90;;;;;;4975490;28;20059;-34
2023/07/07 00:37:09;;;;;;;3.90;2.05;;;14.40;99.90;;;;;;4964681;28;20505;-34
2023/07/07 00:39:35;;;;;;;3.45;1.88;;;14.40;99.90;;;;;;4954099;28;20102;-34
2023/07/07 00:42:01;;;;;;;3.83;2.28;;;14.40;99.90;;;;;;4955579;28;20054;-34
2023/07/07 00:45:07;;;;;;;4.15;1.90;;;14.30;99.90;;;;;;4952111;28;20460;-34
2023/07/07 00:47:39;;;;;;;4.03;1.95;;;14.30;99.90;;;;;;4952269;28;20154;-34
2023/07/07 00:50:06;;;;;;;4.28;2.40;;;14.20;99.90;;;;;;4949040;28;20405;-34
2023/07/07 00:52:32;;;;;;;5.90;2.38;;;14.20;99.90;;;;;;4948818;28;20066;-34
2023/07/07 00:54:58;;;;;;;8.77;2.47;;;14.20;99.90;;;;;;4947947;28;20051;-34
2023/07/07 00:57:24;;;;;;;4.82;2.60;;;14.20;99.90;;;;;;4957873;28;20062;-34
2023/07/07 00:59:50;;;;;;;6.07;2.70;;;14.20;99.90;;;;;;4954288;28;20149;-34
2023/07/07 01:02:25;;;;;;;5.13;2.78;;;14.10;99.90;;;;;;4948919;28;20420;-34
2023/07/07 01:04:54;;;;;;;3.35;2.03;;;14.10;99.90;;;;;;4954196;28;20768;-34
2023/07/07 01:07:26;;;;;;;5.00;2.60;;;14.10;99.90;;;;;;4950391;28;20456;-34
2023/07/07 01:09:52;;;;;;;5.38;2.33;;;14.20;99.90;;;;;;4952433;28;20047;-34
2023/07/07 01:12:18;;;;;;;7.55;2.95;;;14.10;99.90;;;;;;4948699;28;20492;-34
2023/07/07 01:14:47;;;;;;;7.35;2.72;;;14.20;99.90;;;;;;4948580;28;20062;-34
2023/07/07 01:17:30;;;;;;;6.32;2.92;;;14.20;99.90;;;;;;4947342;28;20061;-34
2023/07/07 01:20:15;;;;;;;5.57;2.90;;;14.10;99.90;;;;;;4960577;28;20059;-34
2023/07/07 01:22:47;;;;;;;6.22;2.90;;;14.10;99.90;;;;;;4947162;28;20136;-34
2023/07/07 01:25:55;;;;;;;4.75;2.67;;;14.20;99.90;;;;;;4950639;28;20059;-34
2023/07/07 01:28:32;;;;;;;7.97;3.28;;;14.20;99.90;;;;;;4969506;28;20050;-34
2023/07/07 01:31:19;;;;;;;5.53;3.10;;;14.20;99.90;;;;;;4963394;28;20057;-34
2023/07/07 01:33:46;;;;;;;9.48;4.32;;;14.20;99.90;;;;;;4952793;28;21467;-32
2023/07/07 01:36:13;;;;;;;10.35;3.95;;;14.10;99.90;;;;;;4948724;28;20038;-32
2023/07/07 01:38:40;;;;;;;5.75;3.17;;;14.20;99.90;;;;;;4948804;28;20639;-32
2023/07/07 01:41:35;;;;;;;5.70;3.88;;;14.10;99.90;;;;;;4952784;28;20058;-32
2023/07/07 01:44:16;;;;;;;5.85;3.40;;;14.10;99.90;;;;;;4952616;28;20049;-33
2023/07/07 01:47:03;;;;;;;8.20;4.38;;;14.00;99.90;;;;;;4948959;28;20894;-33
2023/07/07 01:49:40;;;;;;;7.10;4.22;;;14.00;99.90;;;;;;4962035;28;20084;-33
2023/07/07 01:52:12;;;;;;;7.47;4.15;;;14.00;99.90;;;;;;4961334;28;20074;-32
2023/07/07 01:54:44;;;;;;;8.40;3.88;;;14.00;99.90;;;;;;4947146;28;21753;-33
2023/07/07 01:57:11;;;;;;;;;;;14.00;99.90;;;;;;4951234;28;20050;-33
2023/07/07 01:59:38;;;;;;;7.25;4.15;;;13.90;99.90;;;;;;4949702;28;20602;-33
2023/07/07 02:02:04;;;;;;;10.68;5.43;;;13.90;99.90;;;;;;4967146;28;20058;-33
2023/07/07 02:04:30;;;;;;;9.25;4.72;;;13.90;99.90;;;;;;4968652;28;20051;-33
2023/07/07 02:06:56;;;;;;;8.68;4.70;;;13.90;99.90;;;;;;4949978;28;20424;-33
2023/07/07 02:09:21;;;;;;;10.10;5.18;;;13.90;99.90;;;;;;4948476;28;20047;-33
2023/07/07 02:11:47;;;;;;;8.52;4.85;;;13.90;99.90;;;;;;4950398;28;20057;-33
2023/07/07 02:14:13;;;;;;;8.27;4.85;;;13.90;99.90;;;;;;4945489;28;20057;-33
2023/07/07 02:16:38;;;;;;;6.95;4.72;;;13.90;99.90;;;;;;4962686;28;20305;-33
2023/07/07 02:19:04;;;;;;;8.40;5.05;;;13.90;99.90;;;;;;4949619;28;20093;-33
2023/07/07 02:21:30;;;;;;;8.18;4.78;;;13.90;99.90;;;;;;4947289;28;20501;-33
2023/07/07 02:23:55;;;;;;;11.98;6.07;;;13.90;99.90;;;;;;4950347;28;20050;-33
2023/07/07 02:26:21;;;;;;;10.63;5.60;;;13.90;99.90;;;;;;4953342;28;20054;-33
2023/07/07 02:28:47;;;;;;;7.57;5.18;;;13.90;99.90;;;;;;4950536;28;20065;-34
2023/07/07 02:31:14;;;;;;;9.27;5.60;;;13.90;99.90;;;;;;4949139;28;20129;-33
2023/07/07 02:33:39;;;;;;;7.60;5.70;;;13.90;99.90;;;;;;4950654;28;20930;-34
2023/07/07 02:36:08;;;;;;;9.77;5.40;;;13.90;99.90;;;;;;4948886;28;20303;-34
2023/07/07 02:38:35;;;;;;;8.68;5.75;;;13.90;99.90;;;;;;4951961;28;20058;-34
2023/07/07 02:41:01;;;;;;;9.38;5.65;;;13.90;99.90;;;;;;4973135;28;20085;-34
2023/07/07 02:43:28;;;;;;;12.60;6.60;;;13.90;99.90;;;;;;4967424;28;20128;-34
2023/07/07 02:45:53;;;;;;;10.48;6.55;;;13.90;99.90;;;;;;4969949;28;20066;-34
2023/07/07 02:48:20;;;;;;;10.35;6.22;;;13.90;99.90;;;;;;4960163;28;20457;-34
2023/07/07 02:50:55;;;;;;;9.32;6.13;;;13.90;99.90;;;;;;4963788;28;20069;-34
2023/07/07 02:53:22;;;;;;;10.38;6.22;;;13.90;99.90;;;;;;4965007;28;20108;-34
2023/07/07 02:55:48;;;;;;;10.00;6.20;;;13.80;99.90;;;;;;4956730;28;20062;-34
2023/07/07 02:58:13;;;;;;;11.80;6.25;;;13.80;99.90;;;;;;4955336;28;20052;-33
2023/07/07 03:00:39;;;;;;;11.25;7.45;;;13.80;99.90;;;;;;4950590;28;20373;-34
2023/07/07 03:03:07;;;;;;;15.75;6.97;;;13.80;99.90;;;;;;4949735;28;20058;-33
2023/07/07 03:05:33;;;;;;;10.32;6.32;;;13.80;99.90;;;;;;4949774;28;20066;-34
2023/07/07 03:08:00;;;;;;;8.57;5.70;;;13.80;99.90;;;;;;4930801;28;21498;-33
2023/07/07 03:10:25;;;;;;;12.52;6.63;;;13.80;99.90;;;;;;4954468;28;20054;-33
2023/07/07 03:12:51;;;;;;;8.85;5.75;;;13.70;99.90;;;;;;4936650;28;20408;-33
2023/07/07 03:15:20;;;;;;;10.68;6.75;;;13.70;99.90;;;;;;4947736;28;20074;-33
2023/07/07 03:17:47;;;;;;;9.05;5.63;;;13.70;99.90;;;;;;4953842;28;20078;-34
2023/07/07 03:20:13;;;;;;;10.40;6.38;;;13.70;99.90;;;;;;4966760;28;20049;-34
2023/07/07 03:22:39;;;;;;;10.25;6.45;;;13.60;99.90;;;;;;4969598;28;20065;-34
2023/07/07 03:25:05;;;;;;;8.88;6.03;;;13.70;99.90;;;;;;4967138;28;20081;-34
2023/07/07 03:27:31;;;;;;;11.48;6.47;;;13.70;99.90;;;;;;4968508;28;20421;-34
2023/07/07 03:29:57;;;;;;;8.85;5.85;;;13.60;99.90;;;;;;4973084;28;20502;-34
2023/07/07 03:32:23;;;;;;;8.73;6.38;;;13.70;99.90;;;;;;4957379;28;20524;-34
2023/07/07 03:34:50;;;;;;;16.63;6.25;;;13.60;99.90;;;;;;4968831;28;20050;-34
2023/07/07 03:37:16;;;;;;;13.45;7.32;;;13.70;99.90;;;;;;4970028;28;20152;-34
2023/07/07 03:39:42;;;;;;;10.55;6.15;;;13.60;99.90;;;;;;4957255;28;20058;-34
2023/07/07 03:42:08;;;;;;;10.70;6.40;;;13.60;99.90;;;;;;4959578;28;20054;-34
2023/07/07 03:44:35;;;;;;;12.13;7.03;;;13.60;99.90;;;;;;4954522;28;20503;-34
2023/07/07 03:47:01;;;;;;;11.75;7.30;;;13.60;99.90;;;;;;4957125;28;20424;-34
2023/07/07 03:49:27;;;;;;;9.27;6.32;;;13.60;99.90;;;;;;4964085;28;20049;-34
2023/07/07 03:51:52;;;;;;;10.40;6.57;;;13.60;99.90;;;;;;4958115;28;20055;-34
2023/07/07 03:54:18;;;;;;;11.52;6.80;;;13.60;99.90;;;;;;4964390;28;20046;-34
2023/07/07 03:56:44;;;;;;;10.98;7.07;;;13.60;99.90;;;;;;4950067;28;20046;-34
2023/07/07 03:59:09;;;;;;;11.82;6.93;;;13.60;99.90;;;;;;4937561;28;20050;-34
2023/07/07 04:01:35;;;;;;;8.70;6.05;;;13.60;99.90;;;;;;4949872;28;20183;-34
2023/07/07 04:04:01;;;;;;;10.40;6.22;;;13.60;99.90;;;;;;4951844;28;20093;-34
2023/07/07 04:06:26;;;;;;;10.93;6.72;;;13.60;99.90;;;;;;4953644;28;20215;-34
2023/07/07 04:08:52;;;;;;;10.60;6.97;;;13.60;99.90;;;;;;4960940;28;20046;-34
2023/07/07 04:11:22;;;;;;;12.60;7.10;;;13.70;99.90;;;;;;4955592;28;20047;-35
2023/07/07 04:13:50;;;;;;;12.50;7.00;;;13.70;99.90;;;;;;4972655;28;20077;-34
2023/07/07 04:16:21;;;;;;;14.80;6.95;;;13.70;99.90;;;;;;4962056;28;20424;-34
2023/07/07 04:18:48;;;;;;;12.20;7.43;;;13.70;99.90;;;;;;4961029;28;20078;-34
2023/07/07 04:21:18;;;;;;;11.95;7.07;;;13.70;99.90;;;;;;4959132;28;20533;-34
2023/07/07 04:23:46;;;;;;;11.32;7.20;;;13.80;99.90;;;;;;4952161;28;20043;-34
2023/07/07 04:26:11;;;;;;;13.13;7.25;;;13.80;99.90;;;;;;4954311;28;20509;-34
2023/07/07 04:28:37;;;;;;;11.38;6.80;;;13.80;99.90;;;;;;4954040;28;20058;-34
2023/07/07 04:31:05;;;;;;;11.98;7.18;;;13.80;99.90;;;;;;4958667;28;20070;-35
2023/07/07 04:33:32;;;;;;;11.35;7.28;;;13.90;99.90;;;;;;4961424;28;20389;-34
2023/07/07 04:36:00;;;;;;;12.93;8.20;;;13.90;99.90;;;;;;4973691;28;20500;-34
2023/07/07 04:38:33;;;;;;;9.38;6.35;;;14.00;99.90;;;;;;4973182;28;20061;-34
2023/07/07 04:41:22;;;;;;;13.68;7.22;;;14.00;99.90;;;;;;4954923;28;21152;-34
2023/07/07 04:43:54;;;;;;;10.13;6.97;;;14.00;99.90;;;;;;4951183;28;20442;-34
2023/07/07 04:46:36;;;;;;;11.57;6.80;;;14.10;99.90;;;;;;4961273;28;20047;-34
2023/07/07 04:49:06;;;;;;;11.27;7.13;;;14.20;99.90;;;;;;4953001;28;20404;-34
2023/07/07 04:51:42;;;;;;;12.93;7.50;;;14.20;99.90;;;;;;4962153;28;20823;-34
2023/07/07 04:54:11;;;;;;;10.77;7.18;;;14.20;99.90;;;;;;4970965;28;20047;-34
2023/07/07 04:56:37;;;;;;;13.05;7.28;;;14.30;99.90;;;;;;4971988;28;20046;-34
2023/07/07 04:59:04;;;;;;;10.00;6.88;;;14.30;99.90;;;;;;4973418;28;20417;-34
2023/07/07 05:01:30;;;;;;;12.93;6.93;;;14.40;99.90;;;;;;4961705;28;20079;-34
2023/07/07 05:04:01;;;;;;;10.55;6.35;;;14.40;99.90;;;;;;4949275;28;20058;-34
2023/07/07 05:06:29;;;;;;;10.65;6.65;;;14.50;99.90;;;;;;4962801;28;20061;-34
2023/07/07 05:08:56;;;;;;;10.27;6.82;;;14.60;99.90;;;;;;4936820;28;20204;-34
2023/07/07 05:11:25;;;;;;;11.25;6.85;;;14.70;99.90;;;;;;4973915;28;20512;-34
2023/07/07 05:13:51;;;;;;;9.18;6.68;;;14.70;99.90;;;;;;4956281;28;20161;-33
2023/07/07 05:16:19;;;;;;;8.90;7.10;;;14.80;99.90;;;;;;4952485;28;20397;-34
2023/07/07 05:18:45;;;;;;;9.98;6.78;;;14.90;99.90;;;;;;4948575;28;20452;-34
2023/07/07 05:21:12;;;;;;;14.07;7.60;;;14.90;99.90;;;;;;4964551;28;20045;-34
2023/07/07 05:23:38;;;;;;;9.20;5.90;;;15.00;99.90;;;;;;4972362;28;20561;-35
2023/07/07 05:26:05;;;;;;;12.15;6.60;;;15.00;99.90;;;;;;4967770;28;20049;-35
2023/07/07 05:28:32;;;;;;;11.13;7.28;;;15.10;99.90;;;;;;4970572;28;20527;-34
2023/07/07 05:30:57;;;;;;;10.68;6.97;;;15.20;99.90;;;;;;4960919;28;20042;-34
2023/07/07 05:33:23;;;;;;;13.23;7.93;;;15.30;99.90;;;;;;4977177;28;20092;-34
2023/07/07 05:35:55;;;;;;;9.25;6.15;;;15.40;99.90;;;;;;4973966;28;20078;-34
2023/07/07 05:38:23;;;;;;;10.85;7.25;;;15.50;99.90;;;;;;4962160;28;20324;-34
2023/07/07 05:40:50;;;;;;;9.57;6.57;;;15.60;99.90;;;;;;4962422;28;20051;-34
2023/07/07 05:43:17;;;;;;;11.82;6.78;;;15.70;99.90;;;;;;4958352;28;20109;-34
2023/07/07 05:45:43;;;;;;;14.63;7.30;;;15.80;99.90;;;;;;4962292;28;20080;-34
2023/07/07 05:48:10;;;;;;;11.85;7.32;;;15.90;99.90;;;;;;4956049;28;20543;-34
2023/07/07 05:50:38;;;;;;;12.85;6.95;;;16.00;99.90;;;;;;4964182;28;20065;-34
2023/07/07 05:53:04;;;;;;;10.38;6.95;;;16.10;99.90;;;;;;4963417;28;20043;-35
2023/07/07 05:55:33;;;;;;;10.60;7.40;;;16.20;99.90;;;;;;4960211;28;20606;-34
2023/07/07 05:57:59;;;;;;;11.02;6.90;;;16.20;99.90;;;;;;4961408;28;20061;-34
2023/07/07 06:00:27;;;;;;;11.70;6.63;;;16.30;99.90;;;;;;4959283;28;20059;-34
2023/07/07 06:02:57;;;;;;;12.45;7.63;;;16.40;99.90;;;;;;4955202;28;20054;-35
2023/07/07 06:05:23;;;;;;;9.98;6.35;;;16.50;99.90;;;;;;4959731;28;20579;-34
2023/07/07 06:07:51;;;;;;;10.40;6.35;;;16.60;99.90;;;;;;4959228;28;20050;-34
2023/07/07 06:10:17;;;;;;;10.93;6.38;;;16.70;99.90;;;;;;4976219;28;20081;-34
2023/07/07 06:12:43;;;;;;;11.57;6.47;;;16.80;99.90;;;;;;4979112;28;20058;-34
2023/07/07 06:15:09;;;;;;;10.00;5.90;;;16.90;99.90;;;;;;4974504;28;20064;-34
2023/07/07 06:17:35;;;;;;;10.85;6.45;;;17.00;99.90;;;;;;4963335;28;20050;-34
2023/07/07 06:20:01;;;;;;;8.15;5.63;;;17.10;99.90;;;;;;4975272;28;20054;-34
2023/07/07 06:22:27;;;;;;;8.93;6.03;;;17.20;99.90;;;;;;4967480;28;20058;-33
2023/07/07 06:24:53;;;;;;;10.05;5.63;;;17.30;99.90;;;;;;4958742;28;20050;-33
2023/07/07 06:27:19;;;;;;;7.85;5.30;;;17.40;99.90;;;;;;4970771;28;20054;-34
2023/07/07 06:29:44;;;;;;;13.35;5.95;;;17.50;99.90;;;;;;4970800;28;20038;-34
2023/07/07 06:32:12;;;;;;;8.77;5.93;;;17.60;99.90;;;;;;4982119;28;20049;-33
2023/07/07 06:34:37;;;;;;;10.85;6.45;;;17.70;99.90;;;;;;4970715;28;20059;-34
2023/07/07 06:37:03;;;;;;;8.90;5.25;;;17.80;99.90;;;;;;4963425;28;20057;-34
2023/07/07 06:39:29;;;;;;;9.35;5.60;;;17.90;99.90;;;;;;4970739;28;20053;-34
2023/07/07 06:41:56;;;;;;;7.22;4.72;;;18.00;99.90;;;;;;4959672;28;20130;-33
2023/07/07 06:44:22;;;;;;;7.75;4.38;;;18.10;99.90;;;;;;4966893;28;20061;-33
2023/07/07 06:46:47;;;;;;;7.72;4.65;;;18.20;99.90;;;;;;4973514;28;20054;-34
2023/07/07 06:49:13;;;;;;;8.27;5.40;;;18.30;99.90;;;;;;4965071;28;20196;-34
2023/07/07 06:51:39;;;;;;;8.63;4.63;;;18.30;99.90;;;;;;4963270;28;20057;-33
2023/07/07 06:54:05;;;;;;;7.28;4.45;;;18.40;99.90;;;;;;4942631;28;20070;-33
2023/07/07 06:56:31;;;;;;;6.65;3.58;;;18.50;99.90;;;;;;4956271;28;20051;-33
2023/07/07 06:58:57;;;;;;;5.88;3.67;;;18.60;99.90;;;;;;4973502;28;20054;-33
2023/07/07 07:01:23;;;;;;;7.60;4.00;;;18.70;99.90;;;;;;4982694;28;20528;-33
2023/07/07 07:03:48;;;;;;;6.10;3.50;;;18.80;99.90;;;;;;4973878;28;20046;-33
2023/07/07 07:06:15;;;;;;;6.88;3.65;;;18.90;99.90;;;;;;4957887;28;20057;-33
2023/07/07 07:08:40;;;;;;;8.52;3.67;;;19.00;99.90;;;;;;4977445;28;20047;-33
2023/07/07 07:11:07;;;;;;;6.00;3.15;;;19.10;99.90;;;;;;4978870;28;20073;-33
2023/07/07 07:13:33;;;;;;;4.53;3.08;;;19.20;99.90;;;;;;4972588;28;20061;-33
2023/07/07 07:15:59;;;;;;;5.80;2.97;;;19.30;99.90;;;;;;4961305;28;20054;-33
2023/07/07 07:18:25;;;;;;;5.30;2.95;;;19.40;99.90;;;;;;4962474;28;20051;-33
2023/07/07 07:20:54;;;;;;;6.72;2.90;;;19.50;99.90;;;;;;4961019;28;20701;-35
2023/07/07 07:23:20;;;;;;;6.05;2.85;;;19.60;99.90;;;;;;4954114;28;20059;-40
2023/07/07 07:25:48;;;;;;;6.95;3.30;;;19.70;99.90;;;;;;4976406;28;20058;-34
2023/07/07 07:28:15;;;;;;;4.13;2.60;;;19.90;99.90;;;;;;4955950;28;20078;-35
2023/07/07 07:30:41;;;;;;;6.57;2.92;;;20.00;99.90;;;;;;4964054;28;20054;-35
2023/07/07 07:33:15;;;;;;;4.18;2.20;;;20.10;99.90;;;;;;4960141;28;20054;-34
2023/07/07 07:35:41;;;;;;;5.18;2.42;;;20.20;99.90;;;;;;4963231;28;20054;-34
2023/07/07 07:38:08;;;;;;;5.90;2.50;;;20.30;99.90;;;;;;4964415;28;20107;-34
2023/07/07 07:40:34;;;;;;;4.50;2.08;;;20.30;99.90;;;;;;4961188;28;20394;-34
2023/07/07 07:43:00;;;;;;;4.13;1.90;;;20.40;99.90;;;;;;4960828;28;20081;-35
2023/07/07 07:45:26;;;;;;;4.68;2.30;;;20.50;99.90;;;;;;4961456;28;20520;-34
2023/07/07 07:47:51;;;;;;;4.68;2.25;;;20.70;99.90;;;;;;4968430;28;20152;-34
2023/07/07 07:50:21;;;;;;;3.15;1.60;;;20.80;99.90;;;;;;4965623;28;20059;-35
2023/07/07 07:52:48;;;;;;;4.95;2.22;;;20.90;99.90;;;;;;4963948;28;20054;-35
2023/07/07 07:55:14;;;;;;;3.47;1.75;;;21.00;99.90;;;;;;4983585;28;20046;-34
2023/07/07 07:57:41;;;;;;;5.35;2.20;;;21.00;99.90;;;;;;4968613;28;20073;-33
2023/07/07 08:00:08;;;;;;;3.63;1.60;;;21.10;99.90;;;;;;4966138;28;20136;-34
2023/07/07 08:02:36;;;;;;;2.72;1.33;;;21.20;99.90;;;;;;4950112;28;20129;-34
2023/07/07 08:05:02;;;;;;;3.58;1.52;;;21.30;99.90;;;;;;4965061;28;20146;-34
2023/07/07 08:07:28;;;;;;;3.38;1.50;;;21.40;99.90;;;;;;4985464;28;20145;-34
2023/07/07 08:09:54;;;;;;;4.13;1.60;;;21.40;99.90;;;;;;4978941;28;20050;-34
2023/07/07 08:12:19;;;;;;;4.07;1.70;;;21.50;99.90;;;;;;4974226;28;20046;-34
2023/07/07 08:14:45;;;;;;;3.05;1.25;;;21.60;99.90;;;;;;4975285;28;20058;-35
2023/07/07 08:17:12;;;;;;;3.75;1.45;;;21.70;99.90;;;;;;4953823;28;20105;-34
2023/07/07 08:19:40;;;;;;;4.88;1.25;;;21.70;99.90;;;;;;4964257;28;20173;-34
2023/07/07 08:22:10;;;;;;;3.50;1.25;;;21.80;99.90;;;;;;4960085;28;20363;-34
2023/07/07 08:24:43;;;;;;;3.88;1.45;;;21.90;99.90;;;;;;4977004;28;20673;-35
2023/07/07 08:27:10;;;;;;;2.70;1.08;;;22.00;99.90;;;;;;4957704;28;20333;-34
2023/07/07 08:29:38;;;;;;;2.53;1.20;;;22.00;99.90;;;;;;4960170;28;20085;-34
2023/07/07 08:32:04;;;;;;;3.80;1.20;;;22.10;99.90;;;;;;4962121;28;20318;-34
2023/07/07 08:34:30;;;;;;;2.67;1.05;;;22.10;99.90;;;;;;4962970;28;20113;-34
2023/07/07 08:36:59;;;;;;;3.88;0.88;;;22.20;99.90;;;;;;4966701;28;20047;-34
2023/07/07 08:39:26;;;;;;;2.55;0.90;;;22.40;99.90;;;;;;4966970;28;20046;-35
2023/07/07 08:42:05;;;;;;;2.63;1.02;;;22.50;99.90;;;;;;4972607;28;20129;-35
2023/07/07 08:44:34;;;;;;;2.45;1.10;;;22.60;99.90;;;;;;4980097;28;20078;-35
2023/07/07 08:47:15;;;;;;;2.15;1.02;;;22.60;99.90;;;;;;4966071;28;20496;-34
2023/07/07 08:50:01;;;;;;;2.03;1.00;;;22.70;99.90;;;;;;4964846;28;20058;-35
2023/07/07 08:52:51;;;;;;;2.85;1.00;;;22.80;99.90;;;;;;4966712;28;20372;-34
2023/07/07 08:55:23;;;;;;;3.42;0.98;;;22.90;99.90;;;;;;4976909;28;20101;-34
2023/07/07 08:58:03;;;;;;;2.70;1.00;;;23.00;99.90;;;;;;4963939;28;20059;-35
2023/07/07 09:00:53;;;;;;;2.85;1.02;;;23.00;99.90;;;;;;4961231;28;20073;-33
2023/07/07 09:03:28;;;;;;;2.08;0.98;;;23.20;99.90;;;;;;4958634;28;20055;-34
2023/07/07 09:06:22;;;;;;;4.18;1.10;;;23.30;99.90;;;;;;4970883;28;20698;-34
2023/07/07 09:09:10;;;;;;;4.30;1.15;;;23.40;99.90;;;;;;4967399;28;20067;-34
2023/07/07 09:12:01;;;;;;;4.15;1.13;;;23.50;99.90;;;;;;4968257;28;20054;-35
2023/07/07 09:14:28;;;;;;;3.75;1.00;;;23.60;99.90;;;;;;4979057;28;20559;-34
2023/07/07 09:17:03;;;;;;;2.42;1.00;;;23.70;99.90;;;;;;4971255;28;20042;-34
2023/07/07 09:19:42;;;;;;;2.60;1.13;;;23.80;99.90;;;;;;4962680;28;20058;-34
2023/07/07 09:22:12;;;;;;;3.78;0.95;;;24.00;99.90;;;;;;4966661;28;20724;-33
2023/07/07 09:24:54;;;;;;;3.92;1.00;;;24.10;99.90;;;;;;4963488;28;20061;-33
2023/07/07 09:27:30;;;;;;;3.03;1.50;;;24.20;99.90;;;;;;4967584;28;20050;-33
2023/07/07 09:30:34;;;;;;;3.10;1.02;;;24.20;99.90;;;;;;4959727;28;20094;-35
2023/07/07 09:33:00;;;;;;;3.38;1.10;;;24.40;99.90;;;;;;4933352;28;20047;-34
2023/07/07 09:35:31;;;;;;;2.22;1.10;;;24.50;99.90;;;;;;4965904;28;20066;-34
2023/07/07 09:38:30;;;;;;;2.40;1.10;;;24.60;99.90;;;;;;4965118;28;20050;-34
2023/07/07 09:41:14;;;;;;;2.03;0.80;;;24.50;99.90;;;;;;4960632;28;20425;-34
2023/07/07 09:43:58;;;;;;;2.15;1.10;;;24.60;99.90;;;;;;4958516;28;20101;-34
2023/07/07 09:46:45;;;;;;;4.55;1.02;;;24.80;99.90;;;;;;4961431;28;20089;-33
2023/07/07 09:49:37;;;;;;;2.47;0.90;;;24.90;99.90;;;;;;4987598;28;20058;-34
2023/07/07 09:52:21;;;;;;;3.88;1.17;;;25.00;99.90;;;;;;4963767;28;20078;-33
2023/07/07 09:54:48;;;;;;;4.03;1.00;;;25.00;99.90;;;;;;4957730;28;20053;-33
2023/07/07 09:57:36;;;;;;;4.15;1.10;;;25.10;99.90;;;;;;4980459;28;20198;-33
2023/07/07 10:00:04;;;;;;;2.20;1.10;;;25.20;99.90;;;;;;4966449;28;20061;-33
2023/07/07 10:02:31;;;;;;;4.20;1.10;;;;;;;;;;4962198;28;20130;-33
2023/07/07 10:05:05;;;;;;;2.90;1.05;;;;;;;;;;4959519;28;20096;-33
2023/07/07 10:07:36;;;;;;;1.98;1.20;;;;;;;;;;4966884;28;20072;-33
2023/07/07 10:10:04;;;;;;;2.17;0.85;;;25.80;99.90;;;;;;4955663;28;20082;-33
2023/07/07 10:12:29;;;;;;;3.85;0.90;;;25.90;99.90;;;;;;4983190;28;20171;-33
2023/07/07 10:14:55;;;;;;;3.83;1.10;;;25.90;99.90;;;;;;4965855;28;20138;-33
2023/07/07 10:18:05;;;;;;;2.45;1.10;;;25.90;99.90;;;;;;4958400;28;20047;-34
2023/07/07 10:20:31;;;;;;;2.35;1.30;;;26.00;99.90;;;;;;4928586;28;20055;-33
2023/07/07 10:22:57;;;;;;;3.42;1.10;;;26.00;99.90;;;;;;4953479;28;20105;-33
2023/07/07 10:25:25;;;;;;;3.25;1.05;;;26.10;99.90;;;;;;4959049;28;20496;-33
2023/07/07 10:27:54;;;;;;;2.22;1.00;;;26.10;99.90;;;;;;4965081;28;20117;-33
2023/07/07 10:30:20;;;;;;;3.00;1.17;;;26.10;99.90;;;;;;4955069;28;20564;-33
2023/07/07 10:32:46;;;;;;;1.63;0.80;;;26.10;99.90;;;;;;4960234;28;20054;-34
2023/07/07 10:35:18;;;;;;;3.90;1.17;;;26.10;99.90;;;;;;4960804;28;20157;-33
2023/07/07 10:37:45;;;;;;;2.38;1.10;;;26.20;99.90;;;;;;4957333;28;20087;-33
2023/07/07 10:40:25;;;;;;;2.72;1.00;;;26.40;99.90;;;;;;4954021;28;20097;-33
2023/07/07 10:42:55;;;;;;;3.70;1.08;;;26.50;99.90;;;;;;4959813;28;20137;-33
2023/07/07 10:45:22;;;;;;;1.75;1.10;;;26.60;99.90;;;;;;4956721;28;20046;-34
2023/07/07 10:47:47;;;;;;;1.90;0.90;;;26.60;99.90;;;;;;4960879;28;20069;-34
2023/07/07 10:50:20;;;;;;;3.10;1.13;;;26.60;99.90;;;;;;4962870;28;20444;-34
2023/07/07 10:53:27;;;;;;;3.95;0.90;;;26.60;99.90;;;;;;4961026;28;20050;-34
2023/07/07 10:56:06;;;;;;;3.53;1.13;;;26.70;99.90;;;;;;4934856;28;20506;-34
2023/07/07 10:58:38;;;;;;;3.70;1.20;;;26.50;99.90;;;;;;4955505;28;20058;-34
2023/07/07 11:01:21;;;;;;;1.63;0.93;;;26.50;99.90;;;;;;4957087;28;20510;-34
2023/07/07 11:03:54;;;;;;;3.35;1.08;;;26.60;99.90;;;;;;4976002;28;20633;-34
2023/07/07 11:06:59;;;;;;;2.35;1.17;;;26.70;99.90;;;;;;4964859;28;20647;-33
2023/07/07 11:09:31;;;;;;;5.07;1.10;;;26.80;99.90;;;;;;4907266;28;20058;-34
2023/07/07 11:12:12;;;;;;;;;;;27.00;99.90;;;;;;4961646;28;20077;-34
2023/07/07 11:15:19;;;;;;;2.80;1.20;;;27.00;99.90;;;;;;4959819;28;19928;-34
2023/07/07 11:18:05;;;;;;;1.65;0.98;;;27.00;99.90;;;;;;4957119;28;20058;-34
2023/07/07 11:20:37;;;;;;;2.50;1.05;;;27.10;99.90;;;;;;4957495;28;20047;-33
2023/07/07 11:23:51;;;;;;;2.00;1.00;;;27.20;99.90;;;;;;4955460;28;20166;-34
2023/07/07 11:26:33;;;;;;;3.67;0.88;;;27.20;99.90;;;;;;4935223;28;20062;-34
2023/07/07 11:29:27;;;;;;;2.97;1.17;;;27.40;99.90;;;;;;4962609;28;20054;-34
2023/07/07 11:32:45;;;;;;;3.78;1.17;;;27.40;99.90;;;;;;4962848;28;20062;-34
2023/07/07 11:35:53;;;;;;;1.92;0.70;;;27.40;99.90;;;;;;4954306;28;20054;-34
2023/07/07 11:38:37;;;;;;;3.13;1.20;;;27.30;99.90;;;;;;4963869;28;20126;-34
2023/07/07 11:41:37;;;;;;;1.98;0.85;;;27.20;99.90;;;;;;4958299;28;20059;-33
2023/07/07 11:44:47;;;;;;;2.35;1.15;;;27.20;99.90;;;;;;4965386;28;20049;-34
2023/07/07 11:47:39;;;;;;;1.92;0.98;;;27.30;99.90;;;;;;4941813;28;20061;-34
2023/07/07 11:50:33;;;;;;;2.38;0.80;;;27.40;99.90;;;;;;4967323;28;20504;-33
2023/07/07 11:53:18;;;;;;;2.72;0.90;;;27.50;99.90;;;;;;4962754;28;20241;-34
2023/07/07 11:56:21;;;;;;;3.40;0.93;;;27.60;99.90;;;;;;4961238;28;20252;-34
2023/07/07 11:58:50;;;;;;;2.42;1.08;;;27.50;99.90;;;;;;4976642;28;20062;-33
2023/07/07 12:01:40;;;;;;;6.47;1.00;;;27.60;99.90;;;;;;4932859;28;20089;-34
2023/07/07 12:04:21;;;;;;;4.07;1.10;;;27.70;99.90;;;;;;4964348;28;20531;-34
2023/07/07 12:06:54;;;;;;;1.92;1.02;;;27.80;99.90;;;;;;4966731;28;21456;-34
2023/07/07 12:09:43;;;;;;;1.75;0.95;;;27.90;99.90;;;;;;4960052;28;20042;-34
2023/07/07 12:12:23;;;;;;;3.97;1.10;;;28.00;99.90;;;;;;4976964;28;20050;-35
2023/07/07 12:14:54;;;;;;;2.25;1.08;;;28.10;99.90;;;;;;4975420;28;20748;-34
2023/07/07 12:17:27;;;;;;;4.80;1.00;;;28.10;99.90;;;;;;4982598;28;20386;-33
2023/07/07 12:19:59;;;;;;;5.28;0.98;;;28.10;99.90;;;;;;4978992;28;20050;-34
2023/07/07 12:22:31;;;;;;;2.60;0.93;;;28.10;99.90;;;;;;4979623;28;20050;-34
2023/07/07 12:24:56;;;;;;;;;;;28.20;99.90;;;;;;4974963;28;20057;-34
2023/07/07 12:27:32;;;;;;;2.20;0.98;;;28.50;99.90;;;;;;4966999;28;19918;-35
2023/07/07 12:29:59;;;;;;;2.97;1.02;;;28.50;99.90;;;;;;4967201;28;20050;-34
2023/07/07 12:32:24;;;;;;;2.63;0.85;;;28.70;99.90;;;;;;4953530;28;20054;-35
2023/07/07 12:35:13;;;;;;;2.30;1.15;;;28.80;99.90;;;;;;4967172;28;20050;-34
2023/07/07 12:37:39;;;;;;;2.85;1.00;;;29.00;99.90;;;;;;4974433;28;20047;-33
2023/07/07 12:40:16;;;;;;;2.72;1.00;;;29.10;99.90;;;;;;4974395;28;20504;-34
2023/07/07 12:42:44;;;;;;;3.40;1.17;;;29.10;99.90;;;;;;4965484;28;20085;-33
2023/07/07 12:45:29;;;;;;;1.92;0.80;;;29.20;99.90;;;;;;4961912;28;20054;-34
2023/07/07 12:48:02;;;;;;;2.83;1.13;;;29.40;99.90;;;;;;4963744;28;20322;-33
2023/07/07 12:50:38;;;;;;;4.57;1.27;;;29.40;99.90;;;;;;4965547;28;20046;-34
2023/07/07 12:53:09;;;;;;;3.20;1.10;;;29.50;99.90;;;;;;4965077;28;20055;-34
2023/07/07 12:55:55;;;;;;;3.60;1.33;;;29.50;99.90;;;;;;4965735;28;20149;-34
2023/07/07 12:58:33;;;;;;;2.55;1.00;;;29.50;99.90;;;;;;4977778;28;20531;-35
2023/07/07 13:01:14;;;;;;;3.30;1.20;;;29.50;99.90;;;;;;4981830;28;20500;-34
2023/07/07 13:04:07;;;;;;;2.47;1.25;;;29.50;99.90;;;;;;4971565;28;20050;-35
2023/07/07 13:06:57;;;;;;;3.35;1.30;;;29.70;99.90;;;;;;4970580;28;20058;-35
2023/07/07 13:09:26;;;;;;;3.00;1.20;;;29.80;99.90;;;;;;4963271;28;20105;-34